Sunday, November 17, 2019, 3:45 PM EST
Back to Local

KMSS, Massena International -richards Fld

Location: Massena, NY, United States Lat: 44.933
Local Time: 3:45 PM EST (20:45 GMT) Lon: -74.85
Time Zone: US/Eastern Elev: 213 ft

Show me the last for .
Show Decoded

2019-11-17 14:53 METAR KMSS 171953Z AUTO 05011KT 10SM CLR M02/M09 A3029 RMK AO2 SLP267 T10171094
                 =
2019-11-17 13:53 METAR KMSS 171853Z AUTO 05010KT 10SM CLR M02/M09 A3031 RMK AO2 SLP272 T10171094
                 =
2019-11-17 12:53 METAR KMSS 171753Z AUTO 04006KT 10SM CLR M02/M11 A3034 RMK AO2 SLP283 T10221106
                 11022 21156 58035 =
2019-11-17 11:53 METAR KMSS 171653Z AUTO 05003KT 10SM CLR M03/M12 A3038 RMK AO2 SLP295 T10281122
                 =
2019-11-17 10:53 METAR KMSS 171553Z AUTO 05006KT 10SM CLR M05/M13 A3041 RMK AO2 SLP307 T10501133
                 =
2019-11-17 09:53 METAR KMSS 171453Z AUTO 07004KT 10SM CLR M07/M14 A3044 RMK AO2 SLP317 T10671139
                 55007 =
2019-11-17 08:53 METAR KMSS 171353Z AUTO VRB04KT 10SM CLR M10/M14 A3044 RMK AO2 SLP318 T11001139
                 =
2019-11-17 07:53 METAR KMSS 171253Z AUTO 07004KT 10SM CLR M13/M17 A3045 RMK AO2 SLP323 T11281167
                 =
2019-11-17 06:53 METAR KMSS 171153Z AUTO 00000KT 10SM CLR M16/M18 A3046 RMK AO2 SLP326 T11561183
                 11156 21178 56008 =
2019-11-17 05:53 METAR KMSS 171053Z AUTO 00000KT 10SM CLR M17/M19 A3047 RMK AO2 SLP328 T11671194
                 =
2019-11-17 04:53 METAR KMSS 170953Z AUTO 00000KT 10SM CLR M16/M19 A3047 RMK AO2 SLP328 T11611189
                 =
2019-11-17 03:53 METAR KMSS 170853Z AUTO 00000KT 10SM CLR M17/M19 A3049 RMK AO2 SLP334 T11671194
                 56014 =
2019-11-17 02:53 METAR KMSS 170753Z AUTO 00000KT 10SM CLR M17/M19 A3050 RMK AO2 SLP337 T11671194
                 =
2019-11-17 01:53 METAR KMSS 170653Z AUTO 00000KT 10SM CLR M17/M19 A3052 RMK AO2 SLP344 T11671194
                 =
2019-11-17 00:53 METAR KMSS 170553Z AUTO 00000KT 10SM CLR M16/M19 A3053 RMK AO2 SLP347 I1000
                 I6000 T11611189 11122 21172 58019 =
2019-11-16 23:53 METAR KMSS 170453Z AUTO 00000KT 10SM CLR M16/M19 A3056 RMK AO2 SLP357 I1000
                 T11561189 410501167 =
2019-11-16 22:53 METAR KMSS 170353Z AUTO 00000KT 10SM CLR M16/M19 A3057 RMK AO2 SLP362 I1000
                 T11561189 =
2019-11-16 21:53 METAR KMSS 170253Z AUTO 00000KT 10SM CLR M16/M18 A3058 RMK AO2 SLP368 T11561183
                 56007 =
2019-11-16 20:53 METAR KMSS 170153Z AUTO 00000KT 10SM CLR M14/M18 A3059 RMK AO2 SLP370 T11441178
                 =
2019-11-16 19:53 METAR KMSS 170053Z AUTO 00000KT 10SM CLR M13/M17 A3059 RMK AO2 SLP369 T11331167
                 =
2019-11-16 18:53 METAR KMSS 162353Z AUTO 00000KT 10SM CLR M13/M16 A3061 RMK AO2 SLP375 T11281161
                 11050 21133 58001 =
2019-11-16 17:53 METAR KMSS 162253Z AUTO 00000KT 10SM CLR M11/M16 A3061 RMK AO2 SLP374 T11111156
                 =
2019-11-16 16:53 METAR KMSS 162153Z AUTO 00000KT 10SM CLR M08/M15 A3061 RMK AO2 SLP375 T10831150
                 =
2019-11-16 15:53 METAR KMSS 162053Z AUTO 00000KT 10SM CLR M06/M16 A3061 RMK AO2 SLP374 T10561161
                 56012 =

Support USWX by starting your Amazon purchase here.